sensor_id;sensor_type;location;lat;lon;timestamp;pressure;altitude;pressure_sealevel;temperature;humidity
64967;BME280;51710;38.732;-121.358;2023-06-26T00:00:26;100948.63;;;28.18;38.09
64967;BME280;51710;38.732;-121.358;2023-06-26T00:02:52;100938.78;;;28.22;37.68
64967;BME280;51710;38.732;-121.358;2023-06-26T00:05:19;100938.75;;;28.12;37.43
64967;BME280;51710;38.732;-121.358;2023-06-26T00:07:45;100940.38;;;28.13;38.33
64967;BME280;51710;38.732;-121.358;2023-06-26T00:10:11;100936.03;;;28.17;38.11
64967;BME280;51710;38.732;-121.358;2023-06-26T00:12:38;100935.78;;;28.24;37.30
64967;BME280;51710;38.732;-121.358;2023-06-26T00:15:04;100937.69;;;28.28;37.42
64967;BME280;51710;38.732;-121.358;2023-06-26T00:17:31;100932.78;;;28.35;37.40
64967;BME280;51710;38.732;-121.358;2023-06-26T00:20:03;100929.47;;;28.33;38.11
64967;BME280;51710;38.732;-121.358;2023-06-26T00:22:31;100930.59;;;28.37;37.65
64967;BME280;51710;38.732;-121.358;2023-06-26T00:24:57;100929.53;;;28.43;37.96
64967;BME280;51710;38.732;-121.358;2023-06-26T00:27:23;100926.25;;;28.46;37.72
64967;BME280;51710;38.732;-121.358;2023-06-26T00:29:49;100930.06;;;28.45;38.06
64967;BME280;51710;38.732;-121.358;2023-06-26T00:32:18;100917.78;;;28.53;38.00
64967;BME280;51710;38.732;-121.358;2023-06-26T00:34:44;100908.19;;;28.50;38.06
64967;BME280;51710;38.732;-121.358;2023-06-26T00:37:12;100916.91;;;28.42;38.43
64967;BME280;51710;38.732;-121.358;2023-06-26T00:39:38;100918.59;;;28.48;37.98
64967;BME280;51710;38.732;-121.358;2023-06-26T00:42:06;100913.16;;;28.53;37.74
64967;BME280;51710;38.732;-121.358;2023-06-26T00:44:32;100917.47;;;28.49;37.81
64967;BME280;51710;38.732;-121.358;2023-06-26T00:46:59;100924.59;;;28.45;38.08
64967;BME280;51710;38.732;-121.358;2023-06-26T00:49:26;100919.09;;;28.40;37.71
64967;BME280;51710;38.732;-121.358;2023-06-26T00:51:53;100919.63;;;28.27;37.77
64967;BME280;51710;38.732;-121.358;2023-06-26T00:54:20;100911.28;;;28.02;37.56
64967;BME280;51710;38.732;-121.358;2023-06-26T00:56:48;100916.09;;;27.85;37.80
64967;BME280;51710;38.732;-121.358;2023-06-26T00:59:15;100913.88;;;27.77;37.95
64967;BME280;51710;38.732;-121.358;2023-06-26T01:01:41;100922.56;;;27.69;38.47
64967;BME280;51710;38.732;-121.358;2023-06-26T01:04:07;100915.47;;;27.68;38.14
64967;BME280;51710;38.732;-121.358;2023-06-26T01:06:45;100917.13;;;27.74;38.39
64967;BME280;51710;38.732;-121.358;2023-06-26T01:09:18;100917.13;;;27.74;38.08
64967;BME280;51710;38.732;-121.358;2023-06-26T01:11:45;100912.72;;;27.68;37.83
64967;BME280;51710;38.732;-121.358;2023-06-26T01:14:12;100915.16;;;27.64;37.79
64967;BME280;51710;38.732;-121.358;2023-06-26T01:16:40;100914.59;;;27.62;38.12
64967;BME280;51710;38.732;-121.358;2023-06-26T01:19:15;100918.44;;;27.61;38.22
64967;BME280;51710;38.732;-121.358;2023-06-26T01:21:55;100919.25;;;27.62;38.43
64967;BME280;51710;38.732;-121.358;2023-06-26T01:24:24;100918.19;;;27.63;38.33
64967;BME280;51710;38.732;-121.358;2023-06-26T01:26:53;100921.13;;;27.56;38.51
64967;BME280;51710;38.732;-121.358;2023-06-26T01:29:21;100921.88;;;27.42;38.49
64967;BME280;51710;38.732;-121.358;2023-06-26T01:31:49;100918.56;;;27.40;38.56
64967;BME280;51710;38.732;-121.358;2023-06-26T01:34:17;100920.19;;;27.41;39.32
64967;BME280;51710;38.732;-121.358;2023-06-26T01:36:47;100916.38;;;27.42;39.42
64967;BME280;51710;38.732;-121.358;2023-06-26T01:39:17;100928.72;;;27.44;39.40
64967;BME280;51710;38.732;-121.358;2023-06-26T01:41:43;100918.56;;;27.40;39.60
64967;BME280;51710;38.732;-121.358;2023-06-26T01:44:17;100924.56;;;27.37;39.60
64967;BME280;51710;38.732;-121.358;2023-06-26T01:52:42;100914.97;;;27.08;40.19
64967;BME280;51710;38.732;-121.358;2023-06-26T01:57:36;100910.50;;;26.92;40.67
64967;BME280;51710;38.732;-121.358;2023-06-26T02:00:03;100917.59;;;26.93;40.59
64967;BME280;51710;38.732;-121.358;2023-06-26T02:02:30;100906.66;;;26.93;40.57
64967;BME280;51710;38.732;-121.358;2023-06-26T02:04:56;100910.50;;;26.92;40.65
64967;BME280;51710;38.732;-121.358;2023-06-26T02:07:22;100912.66;;;26.90;40.56
64967;BME280;51710;38.732;-121.358;2023-06-26T02:09:49;100914.16;;;26.76;40.77
64967;BME280;51710;38.732;-121.358;2023-06-26T02:12:15;100906.97;;;26.70;41.08
64967;BME280;51710;38.732;-121.358;2023-06-26T02:14:41;100910.16;;;26.61;40.91
64967;BME280;51710;38.732;-121.358;2023-06-26T02:17:07;100907.31;;;26.51;41.07
64967;BME280;51710;38.732;-121.358;2023-06-26T02:19:34;100904.78;;;26.45;40.93
64967;BME280;51710;38.732;-121.358;2023-06-26T02:22:00;100906.66;;;26.39;41.13
64967;BME280;51710;38.732;-121.358;2023-06-26T02:24:27;100907.66;;;26.33;41.15
64967;BME280;51710;38.732;-121.358;2023-06-26T02:26:56;100913.34;;;26.27;41.10
64967;BME280;51710;38.732;-121.358;2023-06-26T02:29:23;100912.19;;;26.23;41.40
64967;BME280;51710;38.732;-121.358;2023-06-26T02:31:49;100909.13;;;26.19;41.82
64967;BME280;51710;38.732;-121.358;2023-06-26T02:34:15;100913.22;;;26.17;42.00
64967;BME280;51710;38.732;-121.358;2023-06-26T02:36:42;100907.94;;;26.10;42.49
64967;BME280;51710;38.732;-121.358;2023-06-26T02:39:08;100911.59;;;25.99;42.48
64967;BME280;51710;38.732;-121.358;2023-06-26T02:41:34;100909.81;;;25.88;42.90
64967;BME280;51710;38.732;-121.358;2023-06-26T02:44:00;100912.97;;;25.80;42.98
64967;BME280;51710;38.732;-121.358;2023-06-26T02:46:26;100910.41;;;25.74;43.22
64967;BME280;51710;38.732;-121.358;2023-06-26T02:48:53;100906.22;;;25.66;43.28
64967;BME280;51710;38.732;-121.358;2023-06-26T02:51:19;100902.84;;;25.59;43.54
64967;BME280;51710;38.732;-121.358;2023-06-26T02:53:45;100900.47;;;25.46;43.69
64967;BME280;51710;38.732;-121.358;2023-06-26T02:56:11;100906.84;;;25.35;43.97
64967;BME280;51710;38.732;-121.358;2023-06-26T02:58:38;100902.88;;;25.26;44.45
64967;BME280;51710;38.732;-121.358;2023-06-26T03:01:04;100904.34;;;25.17;44.45
64967;BME280;51710;38.732;-121.358;2023-06-26T03:03:30;100912.69;;;25.10;44.46
64967;BME280;51710;38.732;-121.358;2023-06-26T03:06:09;100908.72;;;25.01;44.88
64967;BME280;51710;38.732;-121.358;2023-06-26T03:08:36;100923.25;;;24.90;45.04
64967;BME280;51710;38.732;-121.358;2023-06-26T03:11:03;100919.75;;;24.78;45.29
64967;BME280;51710;38.732;-121.358;2023-06-26T03:13:33;100912.44;;;24.67;45.36
64967;BME280;51710;38.732;-121.358;2023-06-26T03:16:00;100917.69;;;24.57;45.88
64967;BME280;51710;38.732;-121.358;2023-06-26T03:18:26;100921.31;;;24.46;45.83
64967;BME280;51710;38.732;-121.358;2023-06-26T03:20:53;100917.44;;;24.30;46.40
64967;BME280;51710;38.732;-121.358;2023-06-26T03:23:20;100929.47;;;24.18;46.48
64967;BME280;51710;38.732;-121.358;2023-06-26T03:25:47;100931.75;;;24.09;46.66
64967;BME280;51710;38.732;-121.358;2023-06-26T03:28:13;100938.63;;;24.00;46.60
64967;BME280;51710;38.732;-121.358;2023-06-26T03:30:40;100941.91;;;23.91;47.18
64967;BME280;51710;38.732;-121.358;2023-06-26T03:33:06;100942.75;;;23.80;47.21
64967;BME280;51710;38.732;-121.358;2023-06-26T03:35:32;100939.09;;;23.74;47.17
64967;BME280;51710;38.732;-121.358;2023-06-26T03:37:59;100950.91;;;23.68;47.39
64967;BME280;51710;38.732;-121.358;2023-06-26T03:40:26;100950.44;;;23.60;47.84
64967;BME280;51710;38.732;-121.358;2023-06-26T03:42:52;100944.53;;;23.51;48.18
64967;BME280;51710;38.732;-121.358;2023-06-26T03:45:19;100944.75;;;23.38;48.29
64967;BME280;51710;38.732;-121.358;2023-06-26T03:47:46;100948.38;;;23.20;48.82
64967;BME280;51710;38.732;-121.358;2023-06-26T03:50:16;100951.06;;;23.09;48.99
64967;BME280;51710;38.732;-121.358;2023-06-26T03:52:42;100948.56;;;22.96;49.16
64967;BME280;51710;38.732;-121.358;2023-06-26T03:55:09;100951.00;;;22.86;49.19
64967;BME280;51710;38.732;-121.358;2023-06-26T03:57:35;100950.75;;;22.76;49.26
64967;BME280;51710;38.732;-121.358;2023-06-26T04:00:02;100949.88;;;22.64;49.56
64967;BME280;51710;38.732;-121.358;2023-06-26T04:02:34;100958.75;;;22.53;49.68
64967;BME280;51710;38.732;-121.358;2023-06-26T04:05:01;100960.81;;;22.39;49.95
64967;BME280;51710;38.732;-121.358;2023-06-26T04:07:29;100968.44;;;22.30;50.32
64967;BME280;51710;38.732;-121.358;2023-06-26T04:09:55;100962.28;;;22.23;50.39
64967;BME280;51710;38.732;-121.358;2023-06-26T04:12:21;100969.97;;;22.08;50.83
64967;BME280;51710;38.732;-121.358;2023-06-26T04:14:47;100971.31;;;21.99;50.56
64967;BME280;51710;38.732;-121.358;2023-06-26T04:17:14;100977.63;;;21.93;50.99
64967;BME280;51710;38.732;-121.358;2023-06-26T04:19:40;100977.31;;;21.83;51.50
64967;BME280;51710;38.732;-121.358;2023-06-26T04:22:06;100975.13;;;21.74;51.47
64967;BME280;51710;38.732;-121.358;2023-06-26T04:24:32;100987.91;;;21.67;51.73
64967;BME280;51710;38.732;-121.358;2023-06-26T04:26:59;101000.69;;;21.60;52.04
64967;BME280;51710;38.732;-121.358;2023-06-26T04:29:28;101001.19;;;21.50;52.26
64967;BME280;51710;38.732;-121.358;2023-06-26T04:31:54;101000.41;;;21.43;52.26
64967;BME280;51710;38.732;-121.358;2023-06-26T04:34:25;101010.63;;;21.41;52.41
64967;BME280;51710;38.732;-121.358;2023-06-26T04:36:52;101010.47;;;21.36;52.24
64967;BME280;51710;38.732;-121.358;2023-06-26T04:39:18;101010.75;;;21.28;52.46
64967;BME280;51710;38.732;-121.358;2023-06-26T04:41:45;101010.81;;;21.15;53.07
64967;BME280;51710;38.732;-121.358;2023-06-26T04:44:12;101012.16;;;21.06;53.30
64967;BME280;51710;38.732;-121.358;2023-06-26T04:46:38;101018.84;;;20.97;53.19
64967;BME280;51710;38.732;-121.358;2023-06-26T04:49:10;101014.72;;;20.88;53.64
64967;BME280;51710;38.732;-121.358;2023-06-26T04:51:36;101018.50;;;20.80;53.44
64967;BME280;51710;38.732;-121.358;2023-06-26T04:54:10;101017.09;;;20.71;54.11
64967;BME280;51710;38.732;-121.358;2023-06-26T04:56:37;101014.88;;;20.62;54.36
64967;BME280;51710;38.732;-121.358;2023-06-26T04:59:05;101020.31;;;20.55;54.47
64967;BME280;51710;38.732;-121.358;2023-06-26T05:01:32;101029.69;;;20.53;54.81
64967;BME280;51710;38.732;-121.358;2023-06-26T05:03:58;101029.50;;;20.48;54.58
64967;BME280;51710;38.732;-121.358;2023-06-26T05:06:25;101025.34;;;20.39;55.06
64967;BME280;51710;38.732;-121.358;2023-06-26T05:08:51;101037.88;;;20.33;55.17
64967;BME280;51710;38.732;-121.358;2023-06-26T05:11:17;101030.63;;;20.27;55.30
64967;BME280;51710;38.732;-121.358;2023-06-26T05:13:44;101027.31;;;20.19;55.29
64967;BME280;51710;38.732;-121.358;2023-06-26T05:16:10;101024.16;;;20.08;55.85
64967;BME280;51710;38.732;-121.358;2023-06-26T05:18:36;101038.31;;;20.04;56.22
64967;BME280;51710;38.732;-121.358;2023-06-26T05:21:03;101030.44;;;19.89;56.13
64967;BME280;51710;38.732;-121.358;2023-06-26T05:23:33;101035.44;;;19.79;56.54
64967;BME280;51710;38.732;-121.358;2023-06-26T05:26:03;101034.19;;;19.75;56.76
64967;BME280;51710;38.732;-121.358;2023-06-26T05:28:30;101032.13;;;19.64;57.00
64967;BME280;51710;38.732;-121.358;2023-06-26T05:31:02;101040.44;;;19.56;57.20
64967;BME280;51710;38.732;-121.358;2023-06-26T05:33:31;101040.84;;;19.53;57.40
64967;BME280;51710;38.732;-121.358;2023-06-26T05:36:00;101042.31;;;19.49;57.58
64967;BME280;51710;38.732;-121.358;2023-06-26T05:38:29;101049.19;;;19.45;57.63
64967;BME280;51710;38.732;-121.358;2023-06-26T05:40:56;101052.47;;;19.41;57.62
64967;BME280;51710;38.732;-121.358;2023-06-26T05:43:22;101049.56;;;19.42;57.98
64967;BME280;51710;38.732;-121.358;2023-06-26T05:45:52;101051.88;;;19.45;57.58
64967;BME280;51710;38.732;-121.358;2023-06-26T05:48:18;101056.22;;;19.46;58.09
64967;BME280;51710;38.732;-121.358;2023-06-26T05:50:45;101058.94;;;19.46;57.84
64967;BME280;51710;38.732;-121.358;2023-06-26T05:53:11;101048.34;;;19.45;58.05
64967;BME280;51710;38.732;-121.358;2023-06-26T05:55:38;101055.41;;;19.39;58.14
64967;BME280;51710;38.732;-121.358;2023-06-26T05:58:07;101065.34;;;19.32;58.35
64967;BME280;51710;38.732;-121.358;2023-06-26T06:00:33;101055.41;;;19.33;58.50
64967;BME280;51710;38.732;-121.358;2023-06-26T06:03:00;101061.63;;;19.33;58.46
64967;BME280;51710;38.732;-121.358;2023-06-26T06:05:26;101059.16;;;19.32;58.54
64967;BME280;51710;38.732;-121.358;2023-06-26T06:07:52;101051.59;;;19.27;58.98
64967;BME280;51710;38.732;-121.358;2023-06-26T06:10:19;101054.91;;;19.16;59.20
64967;BME280;51710;38.732;-121.358;2023-06-26T06:12:45;101056.16;;;19.07;59.67
64967;BME280;51710;38.732;-121.358;2023-06-26T06:15:11;101061.34;;;19.02;59.89
64967;BME280;51710;38.732;-121.358;2023-06-26T06:17:38;101060.91;;;18.98;59.94
64967;BME280;51710;38.732;-121.358;2023-06-26T06:20:04;101063.19;;;18.95;60.06
64967;BME280;51710;38.732;-121.358;2023-06-26T06:22:32;101061.50;;;18.94;60.40
64967;BME280;51710;38.732;-121.358;2023-06-26T06:24:58;101062.34;;;18.88;60.49
64967;BME280;51710;38.732;-121.358;2023-06-26T06:27:24;101056.50;;;18.84;60.37
64967;BME280;51710;38.732;-121.358;2023-06-26T06:29:51;101066.88;;;18.81;60.71
64967;BME280;51710;38.732;-121.358;2023-06-26T06:32:17;101058.16;;;18.79;60.86
64967;BME280;51710;38.732;-121.358;2023-06-26T06:34:43;101068.06;;;18.72;60.84
64967;BME280;51710;38.732;-121.358;2023-06-26T06:37:09;101070.13;;;18.63;61.13
64967;BME280;51710;38.732;-121.358;2023-06-26T06:39:36;101067.16;;;18.52;61.23
64967;BME280;51710;38.732;-121.358;2023-06-26T06:42:02;101069.19;;;18.43;61.62
64967;BME280;51710;38.732;-121.358;2023-06-26T06:44:28;101073.22;;;18.33;61.83
64967;BME280;51710;38.732;-121.358;2023-06-26T06:46:56;101074.25;;;18.25;61.96
64967;BME280;51710;38.732;-121.358;2023-06-26T06:49:22;101076.50;;;18.22;62.06
64967;BME280;51710;38.732;-121.358;2023-06-26T06:51:48;101073.13;;;18.13;61.93
64967;BME280;51710;38.732;-121.358;2023-06-26T06:54:16;101072.63;;;18.03;62.53
64967;BME280;51710;38.732;-121.358;2023-06-26T06:56:43;101074.25;;;17.97;62.43
64967;BME280;51710;38.732;-121.358;2023-06-26T06:59:09;101065.09;;;17.92;62.47
64967;BME280;51710;38.732;-121.358;2023-06-26T07:01:35;101065.63;;;17.81;62.81
64967;BME280;51710;38.732;-121.358;2023-06-26T07:04:02;101068.94;;;17.76;62.98
64967;BME280;51710;38.732;-121.358;2023-06-26T07:06:29;101066.59;;;17.73;63.20
64967;BME280;51710;38.732;-121.358;2023-06-26T07:08:56;101063.25;;;17.71;63.16
64967;BME280;51710;38.732;-121.358;2023-06-26T07:11:22;101066.59;;;17.73;63.12
64967;BME280;51710;38.732;-121.358;2023-06-26T07:13:48;101059.16;;;17.75;62.99
64967;BME280;51710;38.732;-121.358;2023-06-26T07:16:14;101055.63;;;17.75;63.23
64967;BME280;51710;38.732;-121.358;2023-06-26T07:18:41;101049.19;;;17.69;63.22
64967;BME280;51710;38.732;-121.358;2023-06-26T07:21:07;101062.00;;;17.67;63.06
64967;BME280;51710;38.732;-121.358;2023-06-26T07:23:34;101062.38;;;17.64;63.51
64967;BME280;51710;38.732;-121.358;2023-06-26T07:26:00;101064.00;;;17.59;63.71
64967;BME280;51710;38.732;-121.358;2023-06-26T07:28:27;101062.28;;;17.51;63.67
64967;BME280;51710;38.732;-121.358;2023-06-26T07:30:53;101062.69;;;17.48;64.08
64967;BME280;51710;38.732;-121.358;2023-06-26T07:33:19;101058.47;;;17.46;64.05
64967;BME280;51710;38.732;-121.358;2023-06-26T07:35:46;101060.91;;;17.41;63.92
64967;BME280;51710;38.732;-121.358;2023-06-26T07:38:12;101067.34;;;17.40;64.11
64967;BME280;51710;38.732;-121.358;2023-06-26T07:40:39;101068.13;;;17.40;64.26
64967;BME280;51710;38.732;-121.358;2023-06-26T07:43:05;101069.56;;;17.36;64.52
64967;BME280;51710;38.732;-121.358;2023-06-26T07:45:31;101069.03;;;17.26;65.10
64967;BME280;51710;38.732;-121.358;2023-06-26T07:47:57;101069.19;;;17.18;64.93
64967;BME280;51710;38.732;-121.358;2023-06-26T07:50:24;101069.31;;;17.10;65.44
64967;BME280;51710;38.732;-121.358;2023-06-26T07:52:50;101065.50;;;17.05;65.32
64967;BME280;51710;38.732;-121.358;2023-06-26T07:55:18;101064.41;;;16.99;65.47
64967;BME280;51710;38.732;-121.358;2023-06-26T07:57:45;101066.19;;;16.92;65.88
64967;BME280;51710;38.732;-121.358;2023-06-26T08:00:11;101063.44;;;16.85;66.10
64967;BME280;51710;38.732;-121.358;2023-06-26T08:02:38;101070.66;;;16.85;66.07
64967;BME280;51710;38.732;-121.358;2023-06-26T08:05:04;101082.28;;;16.85;66.04
64967;BME280;51710;38.732;-121.358;2023-06-26T08:07:33;101085.50;;;16.81;66.50
64967;BME280;51710;38.732;-121.358;2023-06-26T08:09:59;101082.00;;;16.80;66.23
64967;BME280;51710;38.732;-121.358;2023-06-26T08:12:26;101094.16;;;16.76;66.37
64967;BME280;51710;38.732;-121.358;2023-06-26T08:14:52;101087.47;;;16.72;66.47
64967;BME280;51710;38.732;-121.358;2023-06-26T08:17:18;101084.97;;;16.71;66.57
64967;BME280;51710;38.732;-121.358;2023-06-26T08:19:44;101084.59;;;16.74;66.64
64967;BME280;51710;38.732;-121.358;2023-06-26T08:22:11;101080.91;;;16.75;66.46
64967;BME280;51710;38.732;-121.358;2023-06-26T08:24:37;101084.97;;;16.71;66.63
64967;BME280;51710;38.732;-121.358;2023-06-26T08:27:03;101077.28;;;16.68;66.60
64967;BME280;51710;38.732;-121.358;2023-06-26T08:29:29;101076.63;;;16.66;66.88
64967;BME280;51710;38.732;-121.358;2023-06-26T08:31:56;101068.13;;;16.62;66.94
64967;BME280;51710;38.732;-121.358;2023-06-26T08:34:22;101074.22;;;16.56;66.92
64967;BME280;51710;38.732;-121.358;2023-06-26T08:36:48;101073.16;;;16.51;66.87
64967;BME280;51710;38.732;-121.358;2023-06-26T08:39:14;101066.47;;;16.47;67.20
64967;BME280;51710;38.732;-121.358;2023-06-26T08:41:41;101057.06;;;16.43;67.51
64967;BME280;51710;38.732;-121.358;2023-06-26T08:44:07;101049.75;;;16.37;67.83
64967;BME280;51710;38.732;-121.358;2023-06-26T08:46:34;101051.81;;;16.35;67.67
64967;BME280;51710;38.732;-121.358;2023-06-26T08:49:05;101051.81;;;16.35;67.81
64967;BME280;51710;38.732;-121.358;2023-06-26T08:51:35;101046.03;;;16.38;67.58
64967;BME280;51710;38.732;-121.358;2023-06-26T08:54:08;101049.75;;;16.37;67.57
64967;BME280;51710;38.732;-121.358;2023-06-26T08:56:41;101043.34;;;16.38;67.78
64967;BME280;51710;38.732;-121.358;2023-06-26T08:59:08;101047.22;;;16.35;67.66
64967;BME280;51710;38.732;-121.358;2023-06-26T09:01:41;101041.03;;;16.35;67.66
64967;BME280;51710;38.732;-121.358;2023-06-26T09:04:07;101044.38;;;16.37;67.90
64967;BME280;51710;38.732;-121.358;2023-06-26T09:06:33;101043.94;;;16.33;67.70
64967;BME280;51710;38.732;-121.358;2023-06-26T09:09:00;101047.63;;;16.32;67.78
64967;BME280;51710;38.732;-121.358;2023-06-26T09:11:26;101052.19;;;16.32;67.98
64967;BME280;51710;38.732;-121.358;2023-06-26T09:13:53;101055.03;;;16.30;68.12
64967;BME280;51710;38.732;-121.358;2023-06-26T09:16:25;101059.78;;;16.28;67.86
64967;BME280;51710;38.732;-121.358;2023-06-26T09:18:53;101048.84;;;16.30;67.86
64967;BME280;51710;38.732;-121.358;2023-06-26T09:21:19;101039.75;;;16.31;67.74
64967;BME280;51710;38.732;-121.358;2023-06-26T09:23:45;101047.16;;;16.29;68.05
64967;BME280;51710;38.732;-121.358;2023-06-26T09:26:14;101034.75;;;16.28;68.09
64967;BME280;51710;38.732;-121.358;2023-06-26T09:28:42;101036.78;;;16.26;68.00
64967;BME280;51710;38.732;-121.358;2023-06-26T09:31:09;101026.41;;;16.23;67.96
64967;BME280;51710;38.732;-121.358;2023-06-26T09:33:37;101022.41;;;16.19;68.33
64967;BME280;51710;38.732;-121.358;2023-06-26T09:36:19;101018.81;;;16.12;68.28
64967;BME280;51710;38.732;-121.358;2023-06-26T09:38:51;101015.19;;;16.05;68.54
64967;BME280;51710;38.732;-121.358;2023-06-26T09:41:20;101021.78;;;16.02;68.89
64967;BME280;51710;38.732;-121.358;2023-06-26T09:43:48;101018.25;;;16.02;68.56
64967;BME280;51710;38.732;-121.358;2023-06-26T09:46:24;101018.63;;;15.99;68.87
64967;BME280;51710;38.732;-121.358;2023-06-26T09:49:00;101012.81;;;15.95;68.87
64967;BME280;51710;38.732;-121.358;2023-06-26T09:51:26;101010.28;;;15.94;69.27
64967;BME280;51710;38.732;-121.358;2023-06-26T09:53:54;101002.06;;;15.95;68.89
64967;BME280;51710;38.732;-121.358;2023-06-26T09:56:21;100998.53;;;15.95;69.03
64967;BME280;51710;38.732;-121.358;2023-06-26T09:58:47;101004.56;;;15.97;68.95
64967;BME280;51710;38.732;-121.358;2023-06-26T10:01:15;101012.41;;;15.98;69.26
64967;BME280;51710;38.732;-121.358;2023-06-26T10:03:41;101021.47;;;15.97;69.21
64967;BME280;51710;38.732;-121.358;2023-06-26T10:06:09;101014.00;;;15.93;69.10
64967;BME280;51710;38.732;-121.358;2023-06-26T10:08:39;101013.53;;;15.89;69.06
64967;BME280;51710;38.732;-121.358;2023-06-26T10:11:11;101017.41;;;15.87;69.53
64967;BME280;51710;38.732;-121.358;2023-06-26T10:13:41;101015.09;;;15.84;69.26
64967;BME280;51710;38.732;-121.358;2023-06-26T10:16:08;101019.81;;;15.82;69.58
64967;BME280;51710;38.732;-121.358;2023-06-26T10:18:39;101027.41;;;15.78;69.97
64967;BME280;51710;38.732;-121.358;2023-06-26T10:21:06;101024.53;;;15.79;69.73
64967;BME280;51710;38.732;-121.358;2023-06-26T10:23:36;101021.84;;;15.79;69.60
64967;BME280;51710;38.732;-121.358;2023-06-26T10:26:04;101017.97;;;15.82;69.89
64967;BME280;51710;38.732;-121.358;2023-06-26T10:28:33;101013.44;;;15.83;69.53
64967;BME280;51710;38.732;-121.358;2023-06-26T10:31:01;101020.84;;;15.81;69.80
64967;BME280;51710;38.732;-121.358;2023-06-26T10:33:30;101019.16;;;15.79;69.70
64967;BME280;51710;38.732;-121.358;2023-06-26T10:36:17;101013.78;;;15.79;69.71
64967;BME280;51710;38.732;-121.358;2023-06-26T10:39:05;101009.63;;;15.77;69.66
64967;BME280;51710;38.732;-121.358;2023-06-26T10:41:43;101011.19;;;15.71;69.91
64967;BME280;51710;38.732;-121.358;2023-06-26T10:44:16;101008.50;;;15.71;70.25
64967;BME280;51710;38.732;-121.358;2023-06-26T10:46:53;100999.78;;;15.69;70.18
64967;BME280;51710;38.732;-121.358;2023-06-26T10:49:21;101003.88;;;15.65;69.89
64967;BME280;51710;38.732;-121.358;2023-06-26T10:51:51;101002.75;;;15.60;70.37
64967;BME280;51710;38.732;-121.358;2023-06-26T10:54:20;101002.28;;;15.56;70.37
64967;BME280;51710;38.732;-121.358;2023-06-26T10:56:48;101000.97;;;15.52;70.52
64967;BME280;51710;38.732;-121.358;2023-06-26T10:59:22;101005.88;;;15.49;70.76
64967;BME280;51710;38.732;-121.358;2023-06-26T11:02:02;101005.50;;;15.52;70.61
64967;BME280;51710;38.732;-121.358;2023-06-26T11:04:42;101002.00;;;15.51;70.70
64967;BME280;51710;38.732;-121.358;2023-06-26T11:07:26;101003.38;;;15.47;70.50
64967;BME280;51710;38.732;-121.358;2023-06-26T11:12:42;101000.03;;;15.45;71.03
64967;BME280;51710;38.732;-121.358;2023-06-26T11:15:10;101002.91;;;15.44;71.01
64967;BME280;51710;38.732;-121.358;2023-06-26T11:17:37;101004.94;;;15.42;71.14
64967;BME280;51710;38.732;-121.358;2023-06-26T11:20:14;101018.16;;;15.43;71.11
64967;BME280;51710;38.732;-121.358;2023-06-26T11:22:42;101011.44;;;15.47;71.20
64967;BME280;51710;38.732;-121.358;2023-06-26T11:25:09;101009.41;;;15.49;71.26
64967;BME280;51710;38.732;-121.358;2023-06-26T11:27:43;101021.13;;;15.48;71.29
64967;BME280;51710;38.732;-121.358;2023-06-26T11:30:11;101025.69;;;15.48;71.28
64967;BME280;51710;38.732;-121.358;2023-06-26T11:32:38;101026.22;;;15.43;71.24
64967;BME280;51710;38.732;-121.358;2023-06-26T11:35:05;101022.88;;;15.41;71.30
64967;BME280;51710;38.732;-121.358;2023-06-26T11:37:32;101017.84;;;15.38;71.72
64967;BME280;51710;38.732;-121.358;2023-06-26T11:39:59;101015.84;;;15.40;71.59
64967;BME280;51710;38.732;-121.358;2023-06-26T11:42:26;101032.25;;;15.45;71.52
64967;BME280;51710;38.732;-121.358;2023-06-26T11:44:52;101031.88;;;15.48;71.39
64967;BME280;51710;38.732;-121.358;2023-06-26T11:47:20;101034.22;;;15.51;71.56
64967;BME280;51710;38.732;-121.358;2023-06-26T11:49:49;101038.09;;;15.49;71.28
64967;BME280;51710;38.732;-121.358;2023-06-26T11:52:16;101035.47;;;15.41;71.57
64967;BME280;51710;38.732;-121.358;2023-06-26T11:54:43;101034.13;;;15.37;71.96
64967;BME280;51710;38.732;-121.358;2023-06-26T11:57:13;101037.84;;;15.36;72.08
64967;BME280;51710;38.732;-121.358;2023-06-26T11:59:40;101036.63;;;15.38;72.03
64967;BME280;51710;38.732;-121.358;2023-06-26T12:02:11;101026.41;;;15.42;71.71
64967;BME280;51710;38.732;-121.358;2023-06-26T12:04:43;101027.06;;;15.44;71.83
64967;BME280;51710;38.732;-121.358;2023-06-26T12:07:10;101028.53;;;15.46;71.63
64967;BME280;51710;38.732;-121.358;2023-06-26T12:09:44;101027.91;;;15.44;72.01
64967;BME280;51710;38.732;-121.358;2023-06-26T12:12:14;101032.44;;;15.44;71.99
64967;BME280;51710;38.732;-121.358;2023-06-26T12:14:40;101037.13;;;15.42;72.15
64967;BME280;51710;38.732;-121.358;2023-06-26T12:17:10;101023.53;;;15.43;71.99
64967;BME280;51710;38.732;-121.358;2023-06-26T12:19:46;101029.56;;;15.45;72.13
64967;BME280;51710;38.732;-121.358;2023-06-26T12:22:16;101029.84;;;15.50;71.81
64967;BME280;51710;38.732;-121.358;2023-06-26T12:24:44;101034.03;;;15.53;72.27
64967;BME280;51710;38.732;-121.358;2023-06-26T12:27:16;101038.09;;;15.49;71.64
64967;BME280;51710;38.732;-121.358;2023-06-26T12:30:04;101038.44;;;15.46;72.31
64967;BME280;51710;38.732;-121.358;2023-06-26T12:32:31;101033.91;;;15.46;71.87
64967;BME280;51710;38.732;-121.358;2023-06-26T12:34:58;101031.88;;;15.48;72.19